KDDC/DDC METAR and TAF weather

Enter ICAO airport designator
Station Type Date Time Source
KDDC METAR 2021/05/11 23:52 UTC NOAA

KDDC 112352Z AUTO 06010KT 8SM FEW024 SCT044 BKN055 12/07 A3024 RMK AO2 SLP239 60005 T01170067 10117 20083 53004


Station Type Date Time Source
KDDC Decoded METAR 2021/05/11 23:52 UTC NOAA

DODGE CITY REGIONAL AIRPORT, KS, United States (KDDC) 37-46N 99-58W 789M
May 11, 2021 - 07:52 PM EDT / 2021.05.11 2352 UTC
Wind: from the ENE (060 degrees) at 12 MPH (10 KT):0
Visibility: 8 mile(s):0
Sky conditions: mostly cloudy
Temperature: 53.1 F (11.7 C)
Dew Point: 44.1 F (6.7 C)
Relative Humidity: 71%
Pressure (altimeter): 30.24 in. Hg (1024 hPa)
Pressure tendency: 0.01 inches (0.4 hPa) higher than three hours ago
ob: KDDC 112352Z AUTO 06010KT 8SM FEW024 SCT044 BKN055 12/07 A3024 RMK AO2 SLP239 60005 T01170067 10117 20083 53004
cycle: 0

Station Type Date Time Source
KDDC TAF 2021/05/11 20:03 UTC NOAA

TAF
AMD KDDC 112001Z 1120/1218 04012KT 5SM BR FEW007 BKN040 OVC045
FM120000 06008KT P6SM OVC020
FM120600 05005KT 5SM BR OVC020
FM120900 01005KT 4SM BR OVC007
FM121500 12008KT P6SM BKN025

Example: see airport list